TTPPTNCM [BWA416]

Guest
Details From TTPP - Trinidade Piarco
To TNCM - St Maarten - Princess Juliana Intl
Flight Number BWA416
Tags Real Commercial Decoded
Created
Modified
Stats Distance 504 nm / 933 km
Max Altitude 27,999 ft / 8,534 m
Waypoints 8
Social Downloads 20
Likes 1
Share VATSIM

Download

Looking for another format? Having issues loading an existing format? Contact us
Advertisement - Login to hide

Notes

Decoded

Route

TTPP TLPL TFFF TDPD TFFR TAPA TKPK TNCM

ID Type Via Altitude Latitude Longitude Leg Dist Tot Dist Heading (true) Name
O TTPP APT - 0 ft / 0 m 10.59533˚ -61.35186˚ - 0 nm - -
TLPL APT - 27,999 ft / 8,534 m 13.73320˚ -60.96526˚ 189 nm 189 nm 7° / 7° -
TFFF APT - 27,999 ft / 8,534 m 14.58843˚ -61.01831˚ 51 nm 241 nm 357° / 357° -
TDPD APT - 27,999 ft / 8,534 m 15.54478˚ -61.30638˚ 59 nm 301 nm 344° / 344° -
TFFR APT - 27,999 ft / 8,534 m 16.26830˚ -61.54794˚ 45 nm 346 nm 342° / 342° -
TAPA APT - 27,999 ft / 8,534 m 17.13024˚ -61.80367˚ 53 nm 400 nm 344° / 344° -
TKPK APT - 23,728 ft / 7,232 m 17.30550˚ -62.72783˚ 54 nm 454 nm 281° / 281° -
O TNCM APT - 0 ft / 0 m 18.03937˚ -63.11961˚ 49 nm 504 nm 333° / 333° -

Altitude Profile

Advertisement - Login to hide

Weather


0- 5 10 15 20 25 30 35+ Temperature / ° C

Clouds and Precipitation
Forecast for 2018-05-23 12:00 UTC. Updated 31 minutes ago

Ground ~20,000 ft ~40,000 ft Winds

TTPP

Details ICAO TTPP (POS)
Name Trinidad/Piarco Intl
Region Trinidad and Tobago
Timezone America/Port_of_Spain (UTC-4.0)
Stats Elevation 57 ft / 17 m (AMSL)
Location 10.595370° -61.337239°
Runways 1
Magnetic Variation 15.024° W

METAR

TTPP 230900Z 00000KT 9999 VCSH FEW015 25/24 Q1014 NOSIG RMK VCSH NE

Decode

TAF

Not found

Departure Runways

ID Width Length Bearing (true) Bearing (mag) Surface Threshold Offset Overrun Length
10 151 ft / 46 m 10,486 ft / 3,196 m 89.83° 104.85° Asphalt 0 ft / 0 m 79 ft / 24 m
28 151 ft / 46 m 10,486 ft / 3,196 m 269.84° 284.86° Asphalt 0 ft / 0 m 184 ft / 56 m

TNCM

Details ICAO TNCM (SXM)
Name St Maarten - Princess Juliana Intl
Region Caribbean Netherlands, Aruba, Curaçao, Sint Maarten
Timezone Unknown (UTC+0.0)
Stats Elevation 12 ft / 4 m (AMSL)
Location 18.040889° -63.108974°
Runways 1
Magnetic Variation 14.337° W

METAR

TNCM 230900Z 08010KT 050V110 9999 SCT018 26/21 Q1017 A3006

Decode

TAF

TAF TNCM 230526Z 2306/2406 08010KT P6SM SCT020 FM231300 11013KT P6SM SCT025

Decode

Destination Runways

ID Width Length Bearing (true) Bearing (mag) Surface Threshold Offset Overrun Length
10 148 ft / 45 m 7,464 ft / 2,275 m 81.43° 95.77° Asphalt 0 ft / 0 m 151 ft / 46 m
28 148 ft / 45 m 7,464 ft / 2,275 m 261.44° 275.78° Asphalt 397 ft / 121 m 0 ft / 0 m

Popular Alternatives